sensor_id;sensor_type;location;lat;lon;timestamp;temperature;humidity
36690;DHT22;22676;51.120;3.702;2023-02-03T00:00:54;24.10;39.40
36690;DHT22;22676;51.120;3.702;2023-02-03T00:03:19;24.10;39.50
36690;DHT22;22676;51.120;3.702;2023-02-03T00:05:45;24.10;39.50
36690;DHT22;22676;51.120;3.702;2023-02-03T00:08:11;24.10;39.50
36690;DHT22;22676;51.120;3.702;2023-02-03T00:10:37;24.00;39.40
36690;DHT22;22676;51.120;3.702;2023-02-03T00:13:03;24.10;39.40
36690;DHT22;22676;51.120;3.702;2023-02-03T00:15:29;24.00;39.40
36690;DHT22;22676;51.120;3.702;2023-02-03T00:17:55;24.10;39.50
36690;DHT22;22676;51.120;3.702;2023-02-03T00:20:20;24.00;39.40
36690;DHT22;22676;51.120;3.702;2023-02-03T00:22:46;24.00;39.50
36690;DHT22;22676;51.120;3.702;2023-02-03T00:25:11;24.00;39.60
36690;DHT22;22676;51.120;3.702;2023-02-03T00:27:37;24.00;39.60
36690;DHT22;22676;51.120;3.702;2023-02-03T00:30:03;23.90;39.60
36690;DHT22;22676;51.120;3.702;2023-02-03T00:32:28;24.00;39.60
36690;DHT22;22676;51.120;3.702;2023-02-03T00:34:54;24.00;39.60
36690;DHT22;22676;51.120;3.702;2023-02-03T00:37:20;23.80;39.70
36690;DHT22;22676;51.120;3.702;2023-02-03T00:39:47;24.00;39.60
36690;DHT22;22676;51.120;3.702;2023-02-03T00:42:13;23.90;39.70
36690;DHT22;22676;51.120;3.702;2023-02-03T00:44:39;23.90;39.70
36690;DHT22;22676;51.120;3.702;2023-02-03T00:47:04;23.80;39.70
36690;DHT22;22676;51.120;3.702;2023-02-03T00:49:30;23.90;39.50
36690;DHT22;22676;51.120;3.702;2023-02-03T00:51:56;23.90;39.60
36690;DHT22;22676;51.120;3.702;2023-02-03T00:54:21;23.90;39.50
36690;DHT22;22676;51.120;3.702;2023-02-03T00:56:47;24.00;39.50
36690;DHT22;22676;51.120;3.702;2023-02-03T00:59:12;24.00;39.50
36690;DHT22;22676;51.120;3.702;2023-02-03T01:01:38;23.90;39.50
36690;DHT22;22676;51.120;3.702;2023-02-03T01:04:03;23.80;39.70
36690;DHT22;22676;51.120;3.702;2023-02-03T01:06:29;23.70;39.70
36690;DHT22;22676;51.120;3.702;2023-02-03T01:08:55;23.70;40.00
36690;DHT22;22676;51.120;3.702;2023-02-03T01:11:21;23.60;40.10
36690;DHT22;22676;51.120;3.702;2023-02-03T01:13:47;23.70;40.00
36690;DHT22;22676;51.120;3.702;2023-02-03T01:16:15;23.70;39.90
36690;DHT22;22676;51.120;3.702;2023-02-03T01:18:41;23.60;39.90
36690;DHT22;22676;51.120;3.702;2023-02-03T01:21:08;23.60;39.90
36690;DHT22;22676;51.120;3.702;2023-02-03T01:23:34;23.60;39.90
36690;DHT22;22676;51.120;3.702;2023-02-03T01:26:19;23.70;39.80
36690;DHT22;22676;51.120;3.702;2023-02-03T01:28:55;23.60;39.80
36690;DHT22;22676;51.120;3.702;2023-02-03T01:31:23;23.70;39.70
36690;DHT22;22676;51.120;3.702;2023-02-03T01:33:50;23.70;39.80
36690;DHT22;22676;51.120;3.702;2023-02-03T01:36:16;23.70;39.80
36690;DHT22;22676;51.120;3.702;2023-02-03T01:38:41;23.60;39.80
36690;DHT22;22676;51.120;3.702;2023-02-03T01:41:09;23.60;39.80
36690;DHT22;22676;51.120;3.702;2023-02-03T01:43:36;23.60;39.80
36690;DHT22;22676;51.120;3.702;2023-02-03T01:46:04;23.60;39.70
36690;DHT22;22676;51.120;3.702;2023-02-03T01:48:31;23.70;39.70
36690;DHT22;22676;51.120;3.702;2023-02-03T01:50:59;23.60;39.70
36690;DHT22;22676;51.120;3.702;2023-02-03T01:53:26;23.60;39.70
36690;DHT22;22676;51.120;3.702;2023-02-03T01:55:51;23.70;39.70
36690;DHT22;22676;51.120;3.702;2023-02-03T02:00:44;23.60;39.70
36690;DHT22;22676;51.120;3.702;2023-02-03T02:03:10;23.60;39.70
36690;DHT22;22676;51.120;3.702;2023-02-03T02:05:39;23.70;39.60
36690;DHT22;22676;51.120;3.702;2023-02-03T02:08:06;23.60;39.70
36690;DHT22;22676;51.120;3.702;2023-02-03T02:10:31;23.60;39.70
36690;DHT22;22676;51.120;3.702;2023-02-03T02:12:57;23.60;39.80
36690;DHT22;22676;51.120;3.702;2023-02-03T02:15:27;23.50;39.80
36690;DHT22;22676;51.120;3.702;2023-02-03T02:20:33;23.40;39.90
36690;DHT22;22676;51.120;3.702;2023-02-03T02:25:51;23.40;39.80
36690;DHT22;22676;51.120;3.702;2023-02-03T02:31:05;23.40;39.80
36690;DHT22;22676;51.120;3.702;2023-02-03T02:41:21;23.50;39.80
36690;DHT22;22676;51.120;3.702;2023-02-03T02:46:15;23.50;39.70
36690;DHT22;22676;51.120;3.702;2023-02-03T02:48:47;23.50;39.70
36690;DHT22;22676;51.120;3.702;2023-02-03T02:51:14;23.50;39.60
36690;DHT22;22676;51.120;3.702;2023-02-03T02:54:02;23.50;39.50
36690;DHT22;22676;51.120;3.702;2023-02-03T02:56:27;23.50;39.60
36690;DHT22;22676;51.120;3.702;2023-02-03T02:58:53;23.50;39.60
36690;DHT22;22676;51.120;3.702;2023-02-03T03:01:20;23.50;39.60
36690;DHT22;22676;51.120;3.702;2023-02-03T03:03:46;23.50;39.60
36690;DHT22;22676;51.120;3.702;2023-02-03T03:06:20;23.40;39.90
36690;DHT22;22676;51.120;3.702;2023-02-03T03:11:16;23.50;39.70
36690;DHT22;22676;51.120;3.702;2023-02-03T03:13:47;23.40;39.60
36690;DHT22;22676;51.120;3.702;2023-02-03T03:16:14;23.50;39.60
36690;DHT22;22676;51.120;3.702;2023-02-03T03:21:40;23.30;39.80
36690;DHT22;22676;51.120;3.702;2023-02-03T03:24:08;23.30;40.00
36690;DHT22;22676;51.120;3.702;2023-02-03T03:26:38;23.30;39.90
36690;DHT22;22676;51.120;3.702;2023-02-03T03:31:29;23.20;40.00
36690;DHT22;22676;51.120;3.702;2023-02-03T03:33:55;23.30;40.00
36690;DHT22;22676;51.120;3.702;2023-02-03T03:36:23;23.20;40.00
36690;DHT22;22676;51.120;3.702;2023-02-03T03:38:54;23.10;40.00
36690;DHT22;22676;51.120;3.702;2023-02-03T03:44:05;23.10;40.10
36690;DHT22;22676;51.120;3.702;2023-02-03T03:46:35;23.10;40.10
36690;DHT22;22676;51.120;3.702;2023-02-03T03:49:04;23.10;40.20
36690;DHT22;22676;51.120;3.702;2023-02-03T03:51:34;23.00;40.20
36690;DHT22;22676;51.120;3.702;2023-02-03T03:54:03;23.00;40.20
36690;DHT22;22676;51.120;3.702;2023-02-03T03:56:31;23.10;40.10
36690;DHT22;22676;51.120;3.702;2023-02-03T03:58:57;23.10;40.10
36690;DHT22;22676;51.120;3.702;2023-02-03T04:01:25;23.20;40.10
36690;DHT22;22676;51.120;3.702;2023-02-03T04:03:56;23.20;39.90
36690;DHT22;22676;51.120;3.702;2023-02-03T04:06:22;23.30;39.80
36690;DHT22;22676;51.120;3.702;2023-02-03T04:08:48;23.30;39.80
36690;DHT22;22676;51.120;3.702;2023-02-03T04:11:13;23.20;39.80
36690;DHT22;22676;51.120;3.702;2023-02-03T04:13:59;23.30;39.80
36690;DHT22;22676;51.120;3.702;2023-02-03T04:16:24;23.30;39.60
36690;DHT22;22676;51.120;3.702;2023-02-03T04:18:50;23.30;39.70
36690;DHT22;22676;51.120;3.702;2023-02-03T04:21:15;23.30;39.70
36690;DHT22;22676;51.120;3.702;2023-02-03T04:23:41;23.30;39.70
36690;DHT22;22676;51.120;3.702;2023-02-03T04:26:06;23.20;39.70
36690;DHT22;22676;51.120;3.702;2023-02-03T04:28:32;23.20;39.80
36690;DHT22;22676;51.120;3.702;2023-02-03T04:31:01;23.10;39.90
36690;DHT22;22676;51.120;3.702;2023-02-03T04:33:26;23.10;40.00
36690;DHT22;22676;51.120;3.702;2023-02-03T04:35:52;23.00;40.00
36690;DHT22;22676;51.120;3.702;2023-02-03T04:38:17;23.10;39.90
36690;DHT22;22676;51.120;3.702;2023-02-03T04:40:43;23.10;40.10
36690;DHT22;22676;51.120;3.702;2023-02-03T04:43:10;23.00;40.60
36690;DHT22;22676;51.120;3.702;2023-02-03T04:45:36;23.00;40.10
36690;DHT22;22676;51.120;3.702;2023-02-03T04:48:01;22.90;40.20
36690;DHT22;22676;51.120;3.702;2023-02-03T04:50:29;22.80;40.20
36690;DHT22;22676;51.120;3.702;2023-02-03T04:52:54;22.90;40.20
36690;DHT22;22676;51.120;3.702;2023-02-03T04:55:20;22.90;40.10
36690;DHT22;22676;51.120;3.702;2023-02-03T04:57:45;22.90;40.30
36690;DHT22;22676;51.120;3.702;2023-02-03T05:00:11;22.90;40.50
36690;DHT22;22676;51.120;3.702;2023-02-03T05:02:37;22.80;40.30
36690;DHT22;22676;51.120;3.702;2023-02-03T05:05:02;22.80;40.40
36690;DHT22;22676;51.120;3.702;2023-02-03T05:07:28;22.70;40.60
36690;DHT22;22676;51.120;3.702;2023-02-03T05:09:54;22.70;40.70
36690;DHT22;22676;51.120;3.702;2023-02-03T05:12:19;22.70;40.70
36690;DHT22;22676;51.120;3.702;2023-02-03T05:14:45;22.70;40.70
36690;DHT22;22676;51.120;3.702;2023-02-03T05:17:10;22.70;40.70
36690;DHT22;22676;51.120;3.702;2023-02-03T05:19:36;22.70;40.70
36690;DHT22;22676;51.120;3.702;2023-02-03T05:22:01;22.80;40.50
36690;DHT22;22676;51.120;3.702;2023-02-03T05:24:27;22.90;40.30
36690;DHT22;22676;51.120;3.702;2023-02-03T05:26:52;23.00;40.20
36690;DHT22;22676;51.120;3.702;2023-02-03T05:29:18;23.10;40.10
36690;DHT22;22676;51.120;3.702;2023-02-03T05:31:44;23.10;39.80
36690;DHT22;22676;51.120;3.702;2023-02-03T05:34:09;23.20;39.70
36690;DHT22;22676;51.120;3.702;2023-02-03T05:36:35;23.30;39.60
36690;DHT22;22676;51.120;3.702;2023-02-03T05:39:00;23.50;39.50
36690;DHT22;22676;51.120;3.702;2023-02-03T05:41:26;23.50;39.30
36690;DHT22;22676;51.120;3.702;2023-02-03T05:44:10;23.60;39.30
36690;DHT22;22676;51.120;3.702;2023-02-03T05:46:35;23.70;39.30
36690;DHT22;22676;51.120;3.702;2023-02-03T05:49:01;23.70;39.10
36690;DHT22;22676;51.120;3.702;2023-02-03T05:51:26;23.80;39.10
36690;DHT22;22676;51.120;3.702;2023-02-03T05:53:52;23.80;39.60
36690;DHT22;22676;51.120;3.702;2023-02-03T05:56:18;23.90;39.00
36690;DHT22;22676;51.120;3.702;2023-02-03T05:58:43;23.90;38.90
36690;DHT22;22676;51.120;3.702;2023-02-03T06:01:09;24.00;38.80
36690;DHT22;22676;51.120;3.702;2023-02-03T06:03:36;24.10;38.70
36690;DHT22;22676;51.120;3.702;2023-02-03T06:06:01;24.10;38.70
36690;DHT22;22676;51.120;3.702;2023-02-03T06:08:27;24.20;38.60
36690;DHT22;22676;51.120;3.702;2023-02-03T06:10:56;24.20;38.60
36690;DHT22;22676;51.120;3.702;2023-02-03T06:13:22;24.30;38.50
36690;DHT22;22676;51.120;3.702;2023-02-03T06:15:47;24.30;38.60
36690;DHT22;22676;51.120;3.702;2023-02-03T06:18:13;24.40;38.60
36690;DHT22;22676;51.120;3.702;2023-02-03T06:20:38;24.40;38.60
36690;DHT22;22676;51.120;3.702;2023-02-03T06:23:04;24.50;38.60
36690;DHT22;22676;51.120;3.702;2023-02-03T06:25:29;24.50;38.80
36690;DHT22;22676;51.120;3.702;2023-02-03T06:27:57;24.60;38.90
36690;DHT22;22676;51.120;3.702;2023-02-03T06:30:23;24.60;39.00
36690;DHT22;22676;51.120;3.702;2023-02-03T06:32:48;24.70;39.10
36690;DHT22;22676;51.120;3.702;2023-02-03T06:35:14;24.70;39.10
36690;DHT22;22676;51.120;3.702;2023-02-03T06:37:40;24.80;39.10
36690;DHT22;22676;51.120;3.702;2023-02-03T06:40:05;24.80;39.10
36690;DHT22;22676;51.120;3.702;2023-02-03T06:42:31;24.90;39.40
36690;DHT22;22676;51.120;3.702;2023-02-03T06:44:57;25.00;39.10
36690;DHT22;22676;51.120;3.702;2023-02-03T06:47:22;25.00;38.60
36690;DHT22;22676;51.120;3.702;2023-02-03T06:49:48;25.00;39.80
36690;DHT22;22676;51.120;3.702;2023-02-03T06:52:14;25.10;40.00
36690;DHT22;22676;51.120;3.702;2023-02-03T06:54:40;25.20;39.70
36690;DHT22;22676;51.120;3.702;2023-02-03T06:57:05;25.20;40.00
36690;DHT22;22676;51.120;3.702;2023-02-03T06:59:31;25.30;39.60
36690;DHT22;22676;51.120;3.702;2023-02-03T07:01:56;25.40;39.40
36690;DHT22;22676;51.120;3.702;2023-02-03T07:04:22;25.40;39.10
36690;DHT22;22676;51.120;3.702;2023-02-03T07:06:48;25.50;38.90
36690;DHT22;22676;51.120;3.702;2023-02-03T07:09:13;25.60;38.60
36690;DHT22;22676;51.120;3.702;2023-02-03T07:11:39;25.70;38.20
36690;DHT22;22676;51.120;3.702;2023-02-03T07:14:04;25.70;38.70
36690;DHT22;22676;51.120;3.702;2023-02-03T07:16:30;25.70;38.00
36690;DHT22;22676;51.120;3.702;2023-02-03T07:18:57;25.80;38.00
36690;DHT22;22676;51.120;3.702;2023-02-03T07:21:22;25.70;38.60
36690;DHT22;22676;51.120;3.702;2023-02-03T07:23:48;25.60;38.60
36690;DHT22;22676;51.120;3.702;2023-02-03T07:26:14;25.60;38.50
36690;DHT22;22676;51.120;3.702;2023-02-03T07:28:40;25.60;38.60
36690;DHT22;22676;51.120;3.702;2023-02-03T07:31:05;25.60;38.60
36690;DHT22;22676;51.120;3.702;2023-02-03T07:33:35;25.60;38.60
36690;DHT22;22676;51.120;3.702;2023-02-03T07:36:00;25.60;38.60
36690;DHT22;22676;51.120;3.702;2023-02-03T07:38:26;25.60;38.70
36690;DHT22;22676;51.120;3.702;2023-02-03T07:40:52;25.60;38.60
36690;DHT22;22676;51.120;3.702;2023-02-03T07:43:18;25.60;39.00
36690;DHT22;22676;51.120;3.702;2023-02-03T07:45:44;25.50;38.90
36690;DHT22;22676;51.120;3.702;2023-02-03T07:48:10;25.40;39.00
36690;DHT22;22676;51.120;3.702;2023-02-03T07:50:36;25.30;39.10
36690;DHT22;22676;51.120;3.702;2023-02-03T07:53:01;25.30;39.10
36690;DHT22;22676;51.120;3.702;2023-02-03T07:55:27;25.30;39.20
36690;DHT22;22676;51.120;3.702;2023-02-03T07:57:53;25.30;39.20
36690;DHT22;22676;51.120;3.702;2023-02-03T08:00:19;25.30;39.00
36690;DHT22;22676;51.120;3.702;2023-02-03T08:02:45;25.20;39.10
36690;DHT22;22676;51.120;3.702;2023-02-03T08:05:11;25.30;39.20
36690;DHT22;22676;51.120;3.702;2023-02-03T08:07:37;25.30;39.20
36690;DHT22;22676;51.120;3.702;2023-02-03T08:10:03;25.20;39.40
36690;DHT22;22676;51.120;3.702;2023-02-03T08:12:28;25.20;39.70
36690;DHT22;22676;51.120;3.702;2023-02-03T08:14:54;25.20;39.60
36690;DHT22;22676;51.120;3.702;2023-02-03T08:17:19;25.10;39.60
36690;DHT22;22676;51.120;3.702;2023-02-03T08:19:45;25.10;39.70
36690;DHT22;22676;51.120;3.702;2023-02-03T08:22:10;25.10;39.90
36690;DHT22;22676;51.120;3.702;2023-02-03T08:24:42;25.10;39.70
36690;DHT22;22676;51.120;3.702;2023-02-03T08:27:20;25.00;40.00
36690;DHT22;22676;51.120;3.702;2023-02-03T08:29:46;25.00;40.10
36690;DHT22;22676;51.120;3.702;2023-02-03T08:32:12;25.00;40.10
36690;DHT22;22676;51.120;3.702;2023-02-03T08:34:39;25.00;40.10
36690;DHT22;22676;51.120;3.702;2023-02-03T08:37:05;25.00;40.10
36690;DHT22;22676;51.120;3.702;2023-02-03T08:39:31;25.00;40.10
36690;DHT22;22676;51.120;3.702;2023-02-03T08:41:57;24.90;40.20
36690;DHT22;22676;51.120;3.702;2023-02-03T08:44:23;25.00;40.20
36690;DHT22;22676;51.120;3.702;2023-02-03T08:46:52;24.90;40.10
36690;DHT22;22676;51.120;3.702;2023-02-03T08:49:18;25.00;40.00
36690;DHT22;22676;51.120;3.702;2023-02-03T08:51:44;24.80;40.10
36690;DHT22;22676;51.120;3.702;2023-02-03T08:54:10;24.80;40.20
36690;DHT22;22676;51.120;3.702;2023-02-03T08:56:36;24.70;40.30
36690;DHT22;22676;51.120;3.702;2023-02-03T08:59:01;24.70;40.30
36690;DHT22;22676;51.120;3.702;2023-02-03T09:01:27;24.80;40.50
36690;DHT22;22676;51.120;3.702;2023-02-03T09:03:53;24.70;40.70
36690;DHT22;22676;51.120;3.702;2023-02-03T09:06:18;24.60;40.80
36690;DHT22;22676;51.120;3.702;2023-02-03T09:08:44;24.70;40.70
36690;DHT22;22676;51.120;3.702;2023-02-03T09:11:11;24.70;40.60
36690;DHT22;22676;51.120;3.702;2023-02-03T09:13:37;24.80;40.50
36690;DHT22;22676;51.120;3.702;2023-02-03T09:16:04;24.80;40.30
36690;DHT22;22676;51.120;3.702;2023-02-03T09:18:29;24.90;40.30
36690;DHT22;22676;51.120;3.702;2023-02-03T09:21:04;24.90;40.10
36690;DHT22;22676;51.120;3.702;2023-02-03T09:23:30;24.90;40.20
36690;DHT22;22676;51.120;3.702;2023-02-03T09:26:00;24.90;40.30
36690;DHT22;22676;51.120;3.702;2023-02-03T09:28:25;24.90;40.30
36690;DHT22;22676;51.120;3.702;2023-02-03T09:30:51;24.80;40.30
36690;DHT22;22676;51.120;3.702;2023-02-03T09:33:17;24.80;40.40
36690;DHT22;22676;51.120;3.702;2023-02-03T09:35:50;24.70;40.40
36690;DHT22;22676;51.120;3.702;2023-02-03T09:38:15;24.80;40.70
36690;DHT22;22676;51.120;3.702;2023-02-03T09:40:41;24.70;40.90
36690;DHT22;22676;51.120;3.702;2023-02-03T09:45:51;24.60;40.70
36690;DHT22;22676;51.120;3.702;2023-02-03T09:48:18;24.70;40.50
36690;DHT22;22676;51.120;3.702;2023-02-03T09:50:44;24.60;40.90
36690;DHT22;22676;51.120;3.702;2023-02-03T09:53:44;24.60;40.90
36690;DHT22;22676;51.120;3.702;2023-02-03T09:56:03;24.70;40.80
36690;DHT22;22676;51.120;3.702;2023-02-03T09:58:31;24.70;40.60
36690;DHT22;22676;51.120;3.702;2023-02-03T10:00:58;24.70;40.50
36690;DHT22;22676;51.120;3.702;2023-02-03T10:08:35;24.50;40.60
36690;DHT22;22676;51.120;3.702;2023-02-03T10:13:39;24.60;40.30
36690;DHT22;22676;51.120;3.702;2023-02-03T10:18:44;24.60;40.20
36690;DHT22;22676;51.120;3.702;2023-02-03T10:21:24;24.50;40.20
36690;DHT22;22676;51.120;3.702;2023-02-03T10:23:53;24.50;40.20
36690;DHT22;22676;51.120;3.702;2023-02-03T10:26:21;24.60;40.10
36690;DHT22;22676;51.120;3.702;2023-02-03T10:28:56;24.50;40.00
36690;DHT22;22676;51.120;3.702;2023-02-03T10:31:25;24.50;40.60
36690;DHT22;22676;51.120;3.702;2023-02-03T10:34:08;24.50;40.00
36690;DHT22;22676;51.120;3.702;2023-02-03T10:36:38;24.50;39.90
36690;DHT22;22676;51.120;3.702;2023-02-03T10:39:11;24.60;39.80
36690;DHT22;22676;51.120;3.702;2023-02-03T10:41:40;24.60;39.80
36690;DHT22;22676;51.120;3.702;2023-02-03T10:44:06;24.50;39.70
36690;DHT22;22676;51.120;3.702;2023-02-03T10:46:35;24.50;39.80
36690;DHT22;22676;51.120;3.702;2023-02-03T10:49:02;24.50;39.80
36690;DHT22;22676;51.120;3.702;2023-02-03T10:51:28;24.40;39.80
36690;DHT22;22676;51.120;3.702;2023-02-03T10:53:57;24.40;39.80
36690;DHT22;22676;51.120;3.702;2023-02-03T10:56:24;24.40;39.80
36690;DHT22;22676;51.120;3.702;2023-02-03T10:58:52;24.40;39.70
36690;DHT22;22676;51.120;3.702;2023-02-03T11:01:18;24.40;39.70
36690;DHT22;22676;51.120;3.702;2023-02-03T11:04:00;24.40;39.90
36690;DHT22;22676;51.120;3.702;2023-02-03T11:06:26;24.30;39.80
36690;DHT22;22676;51.120;3.702;2023-02-03T11:08:52;24.20;39.90
36690;DHT22;22676;51.120;3.702;2023-02-03T11:13:51;24.20;39.70
36690;DHT22;22676;51.120;3.702;2023-02-03T11:16:17;24.40;39.60
36690;DHT22;22676;51.120;3.702;2023-02-03T11:21:17;24.30;39.70
36690;DHT22;22676;51.120;3.702;2023-02-03T11:24:05;24.20;39.50
36690;DHT22;22676;51.120;3.702;2023-02-03T11:26:31;24.10;39.70
36690;DHT22;22676;51.120;3.702;2023-02-03T11:28:58;24.30;39.90
36690;DHT22;22676;51.120;3.702;2023-02-03T11:31:28;24.30;39.70
36690;DHT22;22676;51.120;3.702;2023-02-03T11:34:02;24.40;39.70
36690;DHT22;22676;51.120;3.702;2023-02-03T11:36:29;24.50;39.60
36690;DHT22;22676;51.120;3.702;2023-02-03T11:39:07;24.40;39.60
36690;DHT22;22676;51.120;3.702;2023-02-03T11:41:35;24.20;39.80
36690;DHT22;22676;51.120;3.702;2023-02-03T11:44:03;24.40;39.90
36690;DHT22;22676;51.120;3.702;2023-02-03T11:46:35;24.30;39.90
36690;DHT22;22676;51.120;3.702;2023-02-03T11:49:10;24.40;39.70
36690;DHT22;22676;51.120;3.702;2023-02-03T11:51:49;24.40;39.80
36690;DHT22;22676;51.120;3.702;2023-02-03T11:59:18;24.40;39.90
36690;DHT22;22676;51.120;3.702;2023-02-03T12:12:09;24.20;40.10
36690;DHT22;22676;51.120;3.702;2023-02-03T12:25:02;24.30;40.30
36690;DHT22;22676;51.120;3.702;2023-02-03T12:27:45;24.30;40.30
36690;DHT22;22676;51.120;3.702;2023-02-03T12:32:41;24.60;41.00
36690;DHT22;22676;51.120;3.702;2023-02-03T12:37:41;24.80;40.30
36690;DHT22;22676;51.120;3.702;2023-02-03T12:40:13;24.90;40.20
36690;DHT22;22676;51.120;3.702;2023-02-03T12:42:41;25.00;40.20
36690;DHT22;22676;51.120;3.702;2023-02-03T12:45:09;25.00;40.00
36690;DHT22;22676;51.120;3.702;2023-02-03T12:47:41;25.20;40.00
36690;DHT22;22676;51.120;3.702;2023-02-03T12:50:31;25.20;39.90
36690;DHT22;22676;51.120;3.702;2023-02-03T12:53:05;25.30;40.00
36690;DHT22;22676;51.120;3.702;2023-02-03T12:55:36;25.30;40.00
36690;DHT22;22676;51.120;3.702;2023-02-03T12:58:08;25.40;39.70
36690;DHT22;22676;51.120;3.702;2023-02-03T13:10:37;25.70;39.50
36690;DHT22;22676;51.120;3.702;2023-02-03T13:13:09;25.80;39.50
36690;DHT22;22676;51.120;3.702;2023-02-03T13:15:37;25.80;39.40
36690;DHT22;22676;51.120;3.702;2023-02-03T13:18:46;25.90;39.20
36690;DHT22;22676;51.120;3.702;2023-02-03T13:20:53;26.00;38.90
36690;DHT22;22676;51.120;3.702;2023-02-03T13:23:19;26.10;39.00
36690;DHT22;22676;51.120;3.702;2023-02-03T13:26:04;26.00;39.00
36690;DHT22;22676;51.120;3.702;2023-02-03T13:37:06;25.80;39.10
36690;DHT22;22676;51.120;3.702;2023-02-03T13:44:38;25.60;39.40
36690;DHT22;22676;51.120;3.702;2023-02-03T13:47:05;25.70;39.40
36690;DHT22;22676;51.120;3.702;2023-02-03T13:49:32;25.70;39.40
36690;DHT22;22676;51.120;3.702;2023-02-03T13:51:58;25.60;39.50
36690;DHT22;22676;51.120;3.702;2023-02-03T13:54:26;25.60;39.50
36690;DHT22;22676;51.120;3.702;2023-02-03T13:56:53;25.60;39.80
36690;DHT22;22676;51.120;3.702;2023-02-03T13:59:26;25.50;39.90
36690;DHT22;22676;51.120;3.702;2023-02-03T14:12:35;25.40;40.40
36690;DHT22;22676;51.120;3.702;2023-02-03T14:15:12;25.30;40.40
36690;DHT22;22676;51.120;3.702;2023-02-03T14:22:57;25.30;40.70
36690;DHT22;22676;51.120;3.702;2023-02-03T14:25:24;25.40;40.50
36690;DHT22;22676;51.120;3.702;2023-02-03T14:28:02;25.40;40.60
36690;DHT22;22676;51.120;3.702;2023-02-03T14:30:29;25.40;40.40
36690;DHT22;22676;51.120;3.702;2023-02-03T14:35:23;25.20;40.60
36690;DHT22;22676;51.120;3.702;2023-02-03T14:38:11;25.30;40.70
36690;DHT22;22676;51.120;3.702;2023-02-03T14:43:15;25.20;40.90
36690;DHT22;22676;51.120;3.702;2023-02-03T14:49:04;25.20;40.60
36690;DHT22;22676;51.120;3.702;2023-02-03T14:58:43;25.10;40.50
36690;DHT22;22676;51.120;3.702;2023-02-03T15:06:40;25.20;40.30
36690;DHT22;22676;51.120;3.702;2023-02-03T15:12:17;25.20;40.20
36690;DHT22;22676;51.120;3.702;2023-02-03T15:14:43;25.00;40.40
36690;DHT22;22676;51.120;3.702;2023-02-03T15:17:26;24.90;40.60
36690;DHT22;22676;51.120;3.702;2023-02-03T15:19:52;24.80;40.70
36690;DHT22;22676;51.120;3.702;2023-02-03T15:22:22;24.80;40.90
36690;DHT22;22676;51.120;3.702;2023-02-03T15:25:00;24.80;40.90
36690;DHT22;22676;51.120;3.702;2023-02-03T15:27:30;24.80;41.00
36690;DHT22;22676;51.120;3.702;2023-02-03T15:29:56;24.70;41.10
36690;DHT22;22676;51.120;3.702;2023-02-03T15:32:37;24.80;41.10
36690;DHT22;22676;51.120;3.702;2023-02-03T15:35:03;24.80;41.10
36690;DHT22;22676;51.120;3.702;2023-02-03T15:37:32;24.70;41.10
36690;DHT22;22676;51.120;3.702;2023-02-03T15:39:59;24.80;41.20
36690;DHT22;22676;51.120;3.702;2023-02-03T15:42:28;24.80;41.20
36690;DHT22;22676;51.120;3.702;2023-02-03T15:44:56;24.80;41.30
36690;DHT22;22676;51.120;3.702;2023-02-03T15:49:56;24.70;41.40
36690;DHT22;22676;51.120;3.702;2023-02-03T15:52:23;24.70;42.00
36690;DHT22;22676;51.120;3.702;2023-02-03T15:54:51;24.70;41.40
36690;DHT22;22676;51.120;3.702;2023-02-03T15:57:23;24.70;41.60
36690;DHT22;22676;51.120;3.702;2023-02-03T15:59:52;24.70;41.80
36690;DHT22;22676;51.120;3.702;2023-02-03T16:02:20;24.80;41.60
36690;DHT22;22676;51.120;3.702;2023-02-03T16:04:45;24.70;41.70
36690;DHT22;22676;51.120;3.702;2023-02-03T16:07:24;24.80;41.50
36690;DHT22;22676;51.120;3.702;2023-02-03T16:09:51;24.70;41.50
36690;DHT22;22676;51.120;3.702;2023-02-03T16:12:20;24.80;41.50
36690;DHT22;22676;51.120;3.702;2023-02-03T16:14:46;24.70;41.70
36690;DHT22;22676;51.120;3.702;2023-02-03T16:22:41;24.80;41.60
36690;DHT22;22676;51.120;3.702;2023-02-03T16:25:16;24.80;41.90
36690;DHT22;22676;51.120;3.702;2023-02-03T16:27:43;24.80;41.50
36690;DHT22;22676;51.120;3.702;2023-02-03T16:33:10;24.90;41.00
36690;DHT22;22676;51.120;3.702;2023-02-03T16:35:55;25.00;41.00
36690;DHT22;22676;51.120;3.702;2023-02-03T16:38:43;24.90;41.10
36690;DHT22;22676;51.120;3.702;2023-02-03T16:41:28;24.80;41.50
36690;DHT22;22676;51.120;3.702;2023-02-03T16:44:13;24.70;41.70
36690;DHT22;22676;51.120;3.702;2023-02-03T16:46:58;24.70;41.80
36690;DHT22;22676;51.120;3.702;2023-02-03T16:49:42;24.70;41.80
36690;DHT22;22676;51.120;3.702;2023-02-03T16:52:26;24.80;41.90
36690;DHT22;22676;51.120;3.702;2023-02-03T16:54:53;24.80;41.80
36690;DHT22;22676;51.120;3.702;2023-02-03T16:57:18;24.70;42.10
36690;DHT22;22676;51.120;3.702;2023-02-03T16:59:44;24.70;42.40
36690;DHT22;22676;51.120;3.702;2023-02-03T17:02:09;24.60;42.30
36690;DHT22;22676;51.120;3.702;2023-02-03T17:04:35;24.60;42.20
36690;DHT22;22676;51.120;3.702;2023-02-03T17:07:00;24.70;42.10
36690;DHT22;22676;51.120;3.702;2023-02-03T17:09:29;24.80;41.50
36690;DHT22;22676;51.120;3.702;2023-02-03T17:11:59;24.70;41.70
36690;DHT22;22676;51.120;3.702;2023-02-03T17:14:25;24.80;41.70
36690;DHT22;22676;51.120;3.702;2023-02-03T17:16:51;24.80;41.80
36690;DHT22;22676;51.120;3.702;2023-02-03T17:19:17;24.80;41.50
36690;DHT22;22676;51.120;3.702;2023-02-03T17:21:42;24.70;41.80
36690;DHT22;22676;51.120;3.702;2023-02-03T17:24:08;24.60;41.90
36690;DHT22;22676;51.120;3.702;2023-02-03T17:26:33;24.50;42.10
36690;DHT22;22676;51.120;3.702;2023-02-03T17:28:59;24.40;42.30
36690;DHT22;22676;51.120;3.702;2023-02-03T17:31:27;24.40;42.40
36690;DHT22;22676;51.120;3.702;2023-02-03T17:33:53;24.40;42.40
36690;DHT22;22676;51.120;3.702;2023-02-03T17:36:18;24.40;42.50
36690;DHT22;22676;51.120;3.702;2023-02-03T17:38:49;24.40;42.40
36690;DHT22;22676;51.120;3.702;2023-02-03T17:41:16;24.50;42.50
36690;DHT22;22676;51.120;3.702;2023-02-03T17:43:42;24.50;42.20
36690;DHT22;22676;51.120;3.702;2023-02-03T17:46:08;24.50;42.50
36690;DHT22;22676;51.120;3.702;2023-02-03T17:48:35;24.50;41.40
36690;DHT22;22676;51.120;3.702;2023-02-03T17:51:08;24.50;41.20
36690;DHT22;22676;51.120;3.702;2023-02-03T17:53:34;24.50;41.10
36690;DHT22;22676;51.120;3.702;2023-02-03T17:56:11;24.50;41.20
36690;DHT22;22676;51.120;3.702;2023-02-03T17:58:37;24.50;41.10
36690;DHT22;22676;51.120;3.702;2023-02-03T18:01:09;24.40;41.00
36690;DHT22;22676;51.120;3.702;2023-02-03T18:03:43;24.40;40.90
36690;DHT22;22676;51.120;3.702;2023-02-03T18:06:09;24.50;41.00
36690;DHT22;22676;51.120;3.702;2023-02-03T18:08:35;24.50;40.90
36690;DHT22;22676;51.120;3.702;2023-02-03T18:11:01;24.50;41.00